createdAt,value
2022-11-04T00:04:45.556Z,0.00
2022-11-04T00:09:45.516Z,0.00
2022-11-04T00:14:45.437Z,0.00
2022-11-04T00:19:45.351Z,0.00
2022-11-04T00:24:46.334Z,0.00
2022-11-04T00:29:45.243Z,0.00
2022-11-04T00:34:45.199Z,0.00
2022-11-04T00:39:45.178Z,0.00
2022-11-04T00:44:45.069Z,0.00
2022-11-04T00:49:45.163Z,0.00
2022-11-04T00:54:45.039Z,0.00
2022-11-04T00:59:53.862Z,0.00
2022-11-04T01:04:44.848Z,0.00
2022-11-04T01:09:44.874Z,0.00
2022-11-04T01:14:44.758Z,0.00
2022-11-04T01:19:44.711Z,0.00
2022-11-04T01:24:44.686Z,0.00
2022-11-04T01:29:44.584Z,0.00
2022-11-04T01:34:44.575Z,0.00
2022-11-04T01:39:48.007Z,0.00
2022-11-04T01:44:44.600Z,0.00
2022-11-04T01:49:44.502Z,0.00
2022-11-04T01:54:44.415Z,0.00
2022-11-04T01:59:44.278Z,0.00
2022-11-04T02:04:44.313Z,0.00
2022-11-04T02:09:44.229Z,0.00
2022-11-04T02:14:44.104Z,0.00
2022-11-04T02:19:44.053Z,0.00
2022-11-04T02:24:43.978Z,0.00
2022-11-04T02:29:43.944Z,0.00
2022-11-04T02:34:44.042Z,0.00
2022-11-04T02:39:43.993Z,0.00
2022-11-04T02:44:43.915Z,0.00
2022-11-04T02:49:43.908Z,0.00
2022-11-04T02:54:44.834Z,0.00
2022-11-04T02:59:43.740Z,0.00
2022-11-04T03:04:43.698Z,0.00
2022-11-04T03:09:43.594Z,0.00
2022-11-04T03:14:43.485Z,0.00
2022-11-04T03:19:43.412Z,0.00
2022-11-04T03:24:43.355Z,0.00
2022-11-04T03:29:43.405Z,0.00
2022-11-04T03:34:43.310Z,0.00
2022-11-04T03:39:43.268Z,0.00
2022-11-04T03:44:43.192Z,0.00
2022-11-04T03:49:43.278Z,0.00
2022-11-04T03:54:43.152Z,0.00
2022-11-04T03:59:42.988Z,0.00
2022-11-04T04:04:42.959Z,0.00
2022-11-04T04:09:42.837Z,0.00
2022-11-04T04:14:43.621Z,0.00
2022-11-04T04:19:42.784Z,0.00
2022-11-04T04:24:42.697Z,0.00
2022-11-04T04:29:42.665Z,0.00
2022-11-04T04:34:42.632Z,0.00
2022-11-04T04:39:44.597Z,0.00
2022-11-04T04:44:42.586Z,0.00
2022-11-04T04:49:42.586Z,0.00
2022-11-04T04:54:43.423Z,0.00
2022-11-04T04:59:42.381Z,0.00
2022-11-04T05:04:42.316Z,0.00
2022-11-04T05:09:42.248Z,0.00
2022-11-04T05:14:42.302Z,0.00
2022-11-04T05:19:42.216Z,0.00
2022-11-04T05:24:42.031Z,0.00
2022-11-04T05:29:42.054Z,0.00
2022-11-04T05:34:41.980Z,0.00
2022-11-04T05:39:41.938Z,0.00
2022-11-04T05:44:41.905Z,0.00
2022-11-04T05:49:41.965Z,0.00
2022-11-04T05:54:41.716Z,0.00
2022-11-04T05:59:41.775Z,4.00
2022-11-04T06:04:42.224Z,12.00
2022-11-04T06:09:42.192Z,24.00
2022-11-04T06:14:41.569Z,56.00
2022-11-04T06:19:41.512Z,120.00
2022-11-04T06:24:41.484Z,188.00
2022-11-04T06:29:41.403Z,292.00
2022-11-04T06:34:41.370Z,432.00
2022-11-04T06:39:41.274Z,592.00
2022-11-04T06:44:41.242Z,700.00
2022-11-04T06:49:41.214Z,868.00
2022-11-04T06:54:41.116Z,1100.00
2022-11-04T06:59:49.912Z,1340.00
2022-11-04T07:04:41.031Z,1628.00
2022-11-04T07:09:40.911Z,2360.00
2022-11-04T07:14:40.925Z,2760.00
2022-11-04T07:19:40.875Z,2376.00
2022-11-04T07:24:40.790Z,2624.00
2022-11-04T07:29:40.784Z,2096.00
2022-11-04T07:34:40.713Z,2192.00
2022-11-04T07:39:40.622Z,2224.00
2022-11-04T07:44:40.564Z,2200.00
2022-11-04T07:49:40.528Z,2500.00
2022-11-04T07:54:40.483Z,2360.00
2022-11-04T07:59:40.378Z,2684.00
2022-11-04T08:04:40.381Z,2360.00
2022-11-04T08:09:40.334Z,4004.00
2022-11-04T08:14:40.232Z,4664.00
2022-11-04T08:19:40.183Z,4804.00
2022-11-04T08:24:40.110Z,6396.00
2022-11-04T08:29:40.117Z,8140.00
2022-11-04T08:34:40.130Z,8512.00
2022-11-04T08:39:39.962Z,11072.00
2022-11-04T08:44:40.932Z,14096.00
2022-11-04T08:49:39.890Z,14660.00
2022-11-04T08:54:39.766Z,16736.00
2022-11-04T08:59:39.768Z,21504.00
2022-11-04T09:04:39.731Z,17248.00
2022-11-04T09:09:39.657Z,13884.00
2022-11-04T09:14:39.737Z,9156.00
2022-11-04T09:19:39.516Z,11468.00
2022-11-04T09:24:39.530Z,10712.00
2022-11-04T09:29:39.491Z,8420.00
2022-11-04T09:34:39.409Z,10048.00
2022-11-04T09:39:39.362Z,14200.00
2022-11-04T09:44:59.666Z,13796.00
2022-11-04T09:49:40.230Z,14832.00
2022-11-04T09:54:41.880Z,15540.00
2022-11-04T09:59:40.153Z,9824.00
2022-11-04T10:04:39.021Z,8004.00
2022-11-04T10:09:38.955Z,8000.00
2022-11-04T10:14:38.914Z,11008.00
2022-11-04T10:19:38.839Z,22432.00
2022-11-04T10:24:38.810Z,18976.00
2022-11-04T10:29:38.743Z,12448.00
2022-11-04T10:34:38.729Z,19008.00
2022-11-04T10:39:38.650Z,24032.00
2022-11-04T10:44:38.605Z,22656.00
2022-11-04T10:49:38.543Z,22912.00
2022-11-04T10:54:38.512Z,18688.00
2022-11-04T10:59:38.449Z,11216.00
2022-11-04T11:04:38.362Z,16128.00
2022-11-04T11:09:38.316Z,21344.00
2022-11-04T11:14:38.243Z,18208.00
2022-11-04T11:19:38.185Z,11884.00
2022-11-04T11:24:38.162Z,12584.00
2022-11-04T11:29:38.102Z,17536.00
2022-11-04T11:34:38.040Z,15680.00
2022-11-04T11:39:37.984Z,13772.00
2022-11-04T11:44:38.040Z,13672.00
2022-11-04T11:49:37.927Z,13552.00
2022-11-04T11:54:37.890Z,11528.00
2022-11-04T12:09:38.620Z,10292.00
2022-11-04T12:14:37.678Z,10084.00
2022-11-04T12:19:37.585Z,8984.00
2022-11-04T12:24:37.495Z,8752.00
2022-11-04T12:29:37.467Z,11028.00
2022-11-04T12:34:37.403Z,7744.00
2022-11-04T12:39:37.325Z,7672.00
2022-11-04T12:44:37.302Z,7284.00
2022-11-04T12:49:37.252Z,7952.00
2022-11-04T12:54:37.228Z,9460.00
2022-11-04T18:07:23.327Z,0.00
2022-11-04T18:12:22.266Z,0.00
2022-11-04T18:17:22.222Z,0.00
2022-11-04T18:22:22.260Z,0.00
2022-11-04T18:27:23.103Z,0.00
2022-11-04T18:32:22.066Z,0.00
2022-11-04T18:37:21.990Z,0.00
2022-11-04T18:42:22.346Z,0.00
2022-11-04T18:47:24.054Z,0.00
2022-11-04T18:52:21.790Z,0.00
2022-11-04T18:57:21.871Z,0.00
2022-11-04T19:02:29.371Z,0.00
2022-11-04T19:07:21.598Z,0.00
2022-11-04T19:12:21.536Z,0.00
2022-11-04T19:17:21.539Z,0.00
2022-11-04T19:22:21.453Z,0.00
2022-11-04T19:27:21.414Z,0.00
2022-11-04T19:32:21.313Z,0.00
2022-11-04T19:37:21.294Z,0.00
2022-11-04T19:42:21.257Z,0.00
2022-11-04T19:47:21.162Z,0.00
2022-11-04T19:52:21.133Z,0.00
2022-11-04T19:57:21.093Z,0.00
2022-11-04T20:02:21.162Z,0.00
2022-11-04T20:07:21.036Z,0.00
2022-11-04T20:12:20.877Z,0.00
2022-11-04T20:17:20.861Z,0.00
2022-11-04T20:22:20.784Z,0.00
2022-11-04T20:27:20.729Z,0.00
2022-11-04T20:32:20.761Z,0.00
2022-11-04T20:37:20.603Z,0.00
2022-11-04T20:42:20.553Z,0.00
2022-11-04T20:47:20.481Z,0.00
2022-11-04T20:52:20.586Z,0.00
2022-11-04T20:57:20.423Z,0.00
2022-11-04T21:02:20.527Z,0.00
2022-11-04T21:07:20.325Z,0.00
2022-11-04T21:12:20.233Z,0.00
2022-11-04T21:17:20.217Z,0.00
2022-11-04T21:22:20.110Z,0.00
2022-11-04T21:27:20.084Z,0.00
2022-11-04T21:32:20.016Z,0.00
2022-11-04T21:37:19.972Z,0.00
2022-11-04T21:42:19.901Z,0.00
2022-11-04T21:47:19.855Z,0.00
2022-11-04T21:52:19.804Z,0.00
2022-11-04T21:57:19.766Z,0.00
2022-11-04T22:02:19.819Z,0.00
2022-11-04T22:07:19.637Z,0.00
2022-11-04T22:12:19.601Z,0.00
2022-11-04T22:17:19.526Z,0.00
2022-11-04T22:22:19.451Z,0.00
2022-11-04T22:27:19.413Z,0.00
2022-11-04T22:32:19.383Z,0.00
2022-11-04T22:37:19.364Z,0.00
2022-11-04T22:42:19.304Z,0.00
2022-11-04T22:47:22.618Z,0.00
2022-11-04T22:52:19.176Z,0.00
2022-11-04T22:57:19.111Z,0.00
2022-11-04T23:02:19.212Z,0.00
2022-11-04T23:07:18.964Z,0.00
2022-11-04T23:12:18.943Z,0.00
2022-11-04T23:17:19.000Z,0.00
2022-11-04T23:22:18.903Z,0.00
2022-11-04T23:27:18.842Z,0.00
2022-11-04T23:32:24.485Z,0.00
2022-11-04T23:37:19.741Z,0.00
2022-11-04T23:42:18.615Z,0.00
2022-11-04T23:47:18.532Z,0.00
2022-11-04T23:52:18.499Z,0.00
2022-11-04T23:57:18.557Z,0.00
